sensor_id;sensor_type;location;lat;lon;timestamp;temperature;humidity
16823;DHT22;8528;49.976;11.858;2022-08-16T00:02:31;18.80;99.90
16823;DHT22;8528;49.976;11.858;2022-08-16T00:04:59;18.90;99.90
16823;DHT22;8528;49.976;11.858;2022-08-16T00:07:27;18.80;99.90
16823;DHT22;8528;49.976;11.858;2022-08-16T00:09:58;18.70;99.90
16823;DHT22;8528;49.976;11.858;2022-08-16T00:12:29;18.70;99.90
16823;DHT22;8528;49.976;11.858;2022-08-16T00:14:59;18.60;99.90
16823;DHT22;8528;49.976;11.858;2022-08-16T00:17:26;18.50;99.90
16823;DHT22;8528;49.976;11.858;2022-08-16T00:19:54;18.40;99.90
16823;DHT22;8528;49.976;11.858;2022-08-16T00:22:22;18.30;99.90
16823;DHT22;8528;49.976;11.858;2022-08-16T00:24:52;18.10;99.90
16823;DHT22;8528;49.976;11.858;2022-08-16T00:27:21;18.00;99.90
16823;DHT22;8528;49.976;11.858;2022-08-16T00:29:48;17.90;99.90
16823;DHT22;8528;49.976;11.858;2022-08-16T00:32:36;17.70;99.90
16823;DHT22;8528;49.976;11.858;2022-08-16T00:35:09;17.60;99.90
16823;DHT22;8528;49.976;11.858;2022-08-16T00:37:42;17.50;99.90
16823;DHT22;8528;49.976;11.858;2022-08-16T00:40:44;17.50;99.90
16823;DHT22;8528;49.976;11.858;2022-08-16T00:43:25;17.40;99.90
16823;DHT22;8528;49.976;11.858;2022-08-16T00:46:27;17.40;99.90
16823;DHT22;8528;49.976;11.858;2022-08-16T00:49:05;17.30;99.90
16823;DHT22;8528;49.976;11.858;2022-08-16T00:51:46;17.20;99.90
16823;DHT22;8528;49.976;11.858;2022-08-16T00:54:26;17.10;99.90
16823;DHT22;8528;49.976;11.858;2022-08-16T00:56:55;17.00;99.90
16823;DHT22;8528;49.976;11.858;2022-08-16T00:59:29;16.90;99.90
16823;DHT22;8528;49.976;11.858;2022-08-16T01:02:01;16.80;99.90
16823;DHT22;8528;49.976;11.858;2022-08-16T01:04:49;16.70;99.90
16823;DHT22;8528;49.976;11.858;2022-08-16T01:07:36;16.50;99.90
16823;DHT22;8528;49.976;11.858;2022-08-16T01:10:23;16.40;99.90
16823;DHT22;8528;49.976;11.858;2022-08-16T01:13:10;16.40;99.90
16823;DHT22;8528;49.976;11.858;2022-08-16T01:15:51;16.40;99.90
16823;DHT22;8528;49.976;11.858;2022-08-16T01:18:21;16.30;99.90
16823;DHT22;8528;49.976;11.858;2022-08-16T01:21:25;16.30;99.90
16823;DHT22;8528;49.976;11.858;2022-08-16T01:27:26;16.20;99.90
16823;DHT22;8528;49.976;11.858;2022-08-16T01:30:08;16.10;99.90
16823;DHT22;8528;49.976;11.858;2022-08-16T01:32:48;15.90;99.90
16823;DHT22;8528;49.976;11.858;2022-08-16T01:35:41;15.70;99.90
16823;DHT22;8528;49.976;11.858;2022-08-16T01:38:23;15.80;99.90
16823;DHT22;8528;49.976;11.858;2022-08-16T01:40:58;15.80;99.90
16823;DHT22;8528;49.976;11.858;2022-08-16T01:43:29;15.50;99.90
16823;DHT22;8528;49.976;11.858;2022-08-16T01:46:00;15.20;99.90
16823;DHT22;8528;49.976;11.858;2022-08-16T01:48:55;15.30;99.90
16823;DHT22;8528;49.976;11.858;2022-08-16T01:51:25;15.10;99.90
16823;DHT22;8528;49.976;11.858;2022-08-16T01:53:56;15.00;99.90
16823;DHT22;8528;49.976;11.858;2022-08-16T01:56:28;15.00;99.90
16823;DHT22;8528;49.976;11.858;2022-08-16T01:59:03;14.90;99.90
16823;DHT22;8528;49.976;11.858;2022-08-16T02:01:31;14.80;99.90
16823;DHT22;8528;49.976;11.858;2022-08-16T02:04:00;14.80;99.90
16823;DHT22;8528;49.976;11.858;2022-08-16T02:06:38;14.80;99.90
16823;DHT22;8528;49.976;11.858;2022-08-16T02:09:13;14.50;99.90
16823;DHT22;8528;49.976;11.858;2022-08-16T02:11:57;14.20;99.90
16823;DHT22;8528;49.976;11.858;2022-08-16T02:14:45;14.30;99.90
16823;DHT22;8528;49.976;11.858;2022-08-16T02:17:11;14.20;99.90
16823;DHT22;8528;49.976;11.858;2022-08-16T02:19:40;14.20;99.90
16823;DHT22;8528;49.976;11.858;2022-08-16T02:22:26;14.10;99.90
16823;DHT22;8528;49.976;11.858;2022-08-16T02:25:05;13.90;99.90
16823;DHT22;8528;49.976;11.858;2022-08-16T02:27:40;13.80;99.90
16823;DHT22;8528;49.976;11.858;2022-08-16T02:30:15;13.80;99.90
16823;DHT22;8528;49.976;11.858;2022-08-16T02:33:06;13.80;99.90
16823;DHT22;8528;49.976;11.858;2022-08-16T02:35:35;13.70;99.90
16823;DHT22;8528;49.976;11.858;2022-08-16T02:38:22;13.70;99.90
16823;DHT22;8528;49.976;11.858;2022-08-16T02:40:58;13.90;99.90
16823;DHT22;8528;49.976;11.858;2022-08-16T02:43:30;13.90;99.90
16823;DHT22;8528;49.976;11.858;2022-08-16T02:45:59;14.00;99.90
16823;DHT22;8528;49.976;11.858;2022-08-16T02:48:27;14.00;99.90
16823;DHT22;8528;49.976;11.858;2022-08-16T02:51:05;14.00;99.90
16823;DHT22;8528;49.976;11.858;2022-08-16T02:53:40;14.10;99.90
16823;DHT22;8528;49.976;11.858;2022-08-16T02:56:09;14.20;99.90
16823;DHT22;8528;49.976;11.858;2022-08-16T02:58:41;14.10;99.90
16823;DHT22;8528;49.976;11.858;2022-08-16T03:01:10;14.00;99.90
16823;DHT22;8528;49.976;11.858;2022-08-16T03:03:58;14.10;99.90
16823;DHT22;8528;49.976;11.858;2022-08-16T03:06:45;14.00;99.90
16823;DHT22;8528;49.976;11.858;2022-08-16T03:09:12;13.70;99.90
16823;DHT22;8528;49.976;11.858;2022-08-16T03:11:42;13.70;99.90
16823;DHT22;8528;49.976;11.858;2022-08-16T03:14:10;13.60;99.90
16823;DHT22;8528;49.976;11.858;2022-08-16T03:16:47;13.40;99.90
16823;DHT22;8528;49.976;11.858;2022-08-16T03:19:27;13.40;99.90
16823;DHT22;8528;49.976;11.858;2022-08-16T03:22:16;13.40;99.90
16823;DHT22;8528;49.976;11.858;2022-08-16T03:24:55;13.40;99.90
16823;DHT22;8528;49.976;11.858;2022-08-16T03:27:23;13.50;99.90
16823;DHT22;8528;49.976;11.858;2022-08-16T03:29:56;13.50;99.90
16823;DHT22;8528;49.976;11.858;2022-08-16T03:32:26;13.30;99.90
16823;DHT22;8528;49.976;11.858;2022-08-16T03:34:55;13.20;99.90
16823;DHT22;8528;49.976;11.858;2022-08-16T03:37:22;13.10;99.90
16823;DHT22;8528;49.976;11.858;2022-08-16T03:39:48;13.10;99.90
16823;DHT22;8528;49.976;11.858;2022-08-16T03:42:24;13.10;99.90
16823;DHT22;8528;49.976;11.858;2022-08-16T03:44:54;13.20;99.90
16823;DHT22;8528;49.976;11.858;2022-08-16T03:47:29;13.20;99.90
16823;DHT22;8528;49.976;11.858;2022-08-16T03:50:00;13.20;99.90
16823;DHT22;8528;49.976;11.858;2022-08-16T03:52:51;13.10;99.90
16823;DHT22;8528;49.976;11.858;2022-08-16T03:55:23;13.00;99.90
16823;DHT22;8528;49.976;11.858;2022-08-16T03:58:02;12.90;99.90
16823;DHT22;8528;49.976;11.858;2022-08-16T04:00:30;12.90;99.90
16823;DHT22;8528;49.976;11.858;2022-08-16T04:03:06;12.80;99.90
16823;DHT22;8528;49.976;11.858;2022-08-16T04:05:41;12.80;99.90
16823;DHT22;8528;49.976;11.858;2022-08-16T04:08:12;12.90;99.90
16823;DHT22;8528;49.976;11.858;2022-08-16T04:10:51;12.90;99.90
16823;DHT22;8528;49.976;11.858;2022-08-16T04:13:19;12.90;99.90
16823;DHT22;8528;49.976;11.858;2022-08-16T04:16:07;12.80;99.90
16823;DHT22;8528;49.976;11.858;2022-08-16T04:18:55;12.60;99.90
16823;DHT22;8528;49.976;11.858;2022-08-16T04:21:29;12.50;99.90
16823;DHT22;8528;49.976;11.858;2022-08-16T04:23:58;12.70;99.90
16823;DHT22;8528;49.976;11.858;2022-08-16T04:26:34;12.60;99.90
16823;DHT22;8528;49.976;11.858;2022-08-16T04:29:03;12.60;99.90
16823;DHT22;8528;49.976;11.858;2022-08-16T04:31:53;12.60;99.90
16823;DHT22;8528;49.976;11.858;2022-08-16T04:34:29;12.60;99.90
16823;DHT22;8528;49.976;11.858;2022-08-16T04:36:58;12.80;99.90
16823;DHT22;8528;49.976;11.858;2022-08-16T04:39:29;12.80;99.90
16823;DHT22;8528;49.976;11.858;2022-08-16T04:42:15;12.70;99.90
16823;DHT22;8528;49.976;11.858;2022-08-16T04:44:44;12.70;99.90
16823;DHT22;8528;49.976;11.858;2022-08-16T04:47:25;12.80;99.90
16823;DHT22;8528;49.976;11.858;2022-08-16T04:49:59;12.80;99.90
16823;DHT22;8528;49.976;11.858;2022-08-16T04:52:27;12.90;99.90
16823;DHT22;8528;49.976;11.858;2022-08-16T04:55:00;13.00;99.90
16823;DHT22;8528;49.976;11.858;2022-08-16T04:57:31;13.20;99.90
16823;DHT22;8528;49.976;11.858;2022-08-16T04:59:58;13.40;99.90
16823;DHT22;8528;49.976;11.858;2022-08-16T05:02:49;13.50;99.90
16823;DHT22;8528;49.976;11.858;2022-08-16T05:05:22;13.60;99.90
16823;DHT22;8528;49.976;11.858;2022-08-16T05:07:50;13.70;99.90
16823;DHT22;8528;49.976;11.858;2022-08-16T05:10:27;13.80;99.90
16823;DHT22;8528;49.976;11.858;2022-08-16T05:13:04;14.10;99.90
16823;DHT22;8528;49.976;11.858;2022-08-16T05:15:33;14.20;99.90
16823;DHT22;8528;49.976;11.858;2022-08-16T05:18:05;14.20;99.90
16823;DHT22;8528;49.976;11.858;2022-08-16T05:20:44;14.10;99.90
16823;DHT22;8528;49.976;11.858;2022-08-16T05:23:27;14.30;99.90
16823;DHT22;8528;49.976;11.858;2022-08-16T05:25:57;14.20;99.90
16823;DHT22;8528;49.976;11.858;2022-08-16T05:28:26;14.30;99.90
16823;DHT22;8528;49.976;11.858;2022-08-16T05:31:03;14.40;99.90
16823;DHT22;8528;49.976;11.858;2022-08-16T05:33:32;14.50;99.90
16823;DHT22;8528;49.976;11.858;2022-08-16T05:35:59;14.70;99.90
16823;DHT22;8528;49.976;11.858;2022-08-16T05:38:29;14.90;99.90
16823;DHT22;8528;49.976;11.858;2022-08-16T05:41:06;15.10;99.90
16823;DHT22;8528;49.976;11.858;2022-08-16T05:43:35;15.10;99.90
16823;DHT22;8528;49.976;11.858;2022-08-16T05:46:14;15.20;99.90
16823;DHT22;8528;49.976;11.858;2022-08-16T05:49:00;15.30;99.90
16823;DHT22;8528;49.976;11.858;2022-08-16T05:51:35;15.40;99.90
16823;DHT22;8528;49.976;11.858;2022-08-16T05:54:11;15.50;99.90
16823;DHT22;8528;49.976;11.858;2022-08-16T05:56:40;15.60;99.90
16823;DHT22;8528;49.976;11.858;2022-08-16T05:59:08;15.80;99.90
16823;DHT22;8528;49.976;11.858;2022-08-16T06:01:37;16.10;99.90
16823;DHT22;8528;49.976;11.858;2022-08-16T06:04:06;16.30;99.90
16823;DHT22;8528;49.976;11.858;2022-08-16T06:06:53;16.50;99.90
16823;DHT22;8528;49.976;11.858;2022-08-16T06:09:24;16.70;99.90
16823;DHT22;8528;49.976;11.858;2022-08-16T06:12:09;16.90;99.90
16823;DHT22;8528;49.976;11.858;2022-08-16T06:14:39;17.10;99.90
16823;DHT22;8528;49.976;11.858;2022-08-16T06:17:07;17.30;99.90
16823;DHT22;8528;49.976;11.858;2022-08-16T06:19:43;17.40;99.90
16823;DHT22;8528;49.976;11.858;2022-08-16T06:22:10;17.60;99.90
16823;DHT22;8528;49.976;11.858;2022-08-16T06:24:58;17.80;99.90
16823;DHT22;8528;49.976;11.858;2022-08-16T06:27:26;18.10;99.90
16823;DHT22;8528;49.976;11.858;2022-08-16T06:30:08;18.30;99.90
16823;DHT22;8528;49.976;11.858;2022-08-16T06:32:36;18.50;99.90
16823;DHT22;8528;49.976;11.858;2022-08-16T06:35:14;18.70;99.90
16823;DHT22;8528;49.976;11.858;2022-08-16T06:37:41;18.90;99.90
16823;DHT22;8528;49.976;11.858;2022-08-16T06:40:17;18.90;99.90
16823;DHT22;8528;49.976;11.858;2022-08-16T06:42:47;19.00;99.90
16823;DHT22;8528;49.976;11.858;2022-08-16T06:45:22;19.10;99.90
16823;DHT22;8528;49.976;11.858;2022-08-16T06:47:54;19.30;99.90
16823;DHT22;8528;49.976;11.858;2022-08-16T06:50:23;19.50;99.90
16823;DHT22;8528;49.976;11.858;2022-08-16T06:52:55;19.70;99.90
16823;DHT22;8528;49.976;11.858;2022-08-16T06:55:33;19.80;99.90
16823;DHT22;8528;49.976;11.858;2022-08-16T06:58:04;20.00;99.90
16823;DHT22;8528;49.976;11.858;2022-08-16T07:00:34;20.10;99.90
16823;DHT22;8528;49.976;11.858;2022-08-16T07:03:12;20.30;99.90
16823;DHT22;8528;49.976;11.858;2022-08-16T07:05:54;20.40;99.90
16823;DHT22;8528;49.976;11.858;2022-08-16T07:08:32;20.50;99.90
16823;DHT22;8528;49.976;11.858;2022-08-16T07:10:58;20.70;99.90
16823;DHT22;8528;49.976;11.858;2022-08-16T07:13:33;20.60;99.90
16823;DHT22;8528;49.976;11.858;2022-08-16T07:16:21;20.30;99.90
16823;DHT22;8528;49.976;11.858;2022-08-16T07:18:53;20.00;99.90
16823;DHT22;8528;49.976;11.858;2022-08-16T07:21:27;19.70;99.90
16823;DHT22;8528;49.976;11.858;2022-08-16T07:24:15;19.70;99.90
16823;DHT22;8528;49.976;11.858;2022-08-16T07:26:55;19.80;99.90
16823;DHT22;8528;49.976;11.858;2022-08-16T07:29:22;20.10;99.90
16823;DHT22;8528;49.976;11.858;2022-08-16T07:31:50;20.40;99.90
16823;DHT22;8528;49.976;11.858;2022-08-16T07:34:26;20.60;99.90
16823;DHT22;8528;49.976;11.858;2022-08-16T07:37:06;20.70;99.90
16823;DHT22;8528;49.976;11.858;2022-08-16T07:39:36;20.70;99.90
16823;DHT22;8528;49.976;11.858;2022-08-16T07:42:10;20.60;99.90
16823;DHT22;8528;49.976;11.858;2022-08-16T07:44:59;20.50;99.90
16823;DHT22;8528;49.976;11.858;2022-08-16T07:47:26;20.40;99.90
16823;DHT22;8528;49.976;11.858;2022-08-16T07:49:58;20.60;99.90
16823;DHT22;8528;49.976;11.858;2022-08-16T07:52:24;21.00;99.90
16823;DHT22;8528;49.976;11.858;2022-08-16T07:54:56;21.20;99.90
16823;DHT22;8528;49.976;11.858;2022-08-16T07:57:23;21.40;99.90
16823;DHT22;8528;49.976;11.858;2022-08-16T07:59:51;21.40;99.90
16823;DHT22;8528;49.976;11.858;2022-08-16T08:02:30;21.40;99.90
16823;DHT22;8528;49.976;11.858;2022-08-16T08:04:57;21.50;99.90
16823;DHT22;8528;49.976;11.858;2022-08-16T08:07:34;21.60;99.90
16823;DHT22;8528;49.976;11.858;2022-08-16T08:10:04;21.70;99.90
16823;DHT22;8528;49.976;11.858;2022-08-16T08:12:41;21.70;99.90
16823;DHT22;8528;49.976;11.858;2022-08-16T08:15:10;21.80;99.90
16823;DHT22;8528;49.976;11.858;2022-08-16T08:17:38;22.00;99.90
16823;DHT22;8528;49.976;11.858;2022-08-16T08:20:12;22.20;99.90
16823;DHT22;8528;49.976;11.858;2022-08-16T08:22:55;22.40;99.90
16823;DHT22;8528;49.976;11.858;2022-08-16T08:25:27;22.80;99.90
16823;DHT22;8528;49.976;11.858;2022-08-16T08:28:20;23.10;99.90
16823;DHT22;8528;49.976;11.858;2022-08-16T08:30:47;23.30;99.90
16823;DHT22;8528;49.976;11.858;2022-08-16T08:33:29;23.20;99.90
16823;DHT22;8528;49.976;11.858;2022-08-16T08:36:01;23.10;99.90
16823;DHT22;8528;49.976;11.858;2022-08-16T08:38:30;23.10;99.90
16823;DHT22;8528;49.976;11.858;2022-08-16T08:41:12;23.10;99.90
16823;DHT22;8528;49.976;11.858;2022-08-16T08:43:46;23.20;99.90
16823;DHT22;8528;49.976;11.858;2022-08-16T08:46:17;22.90;99.90
16823;DHT22;8528;49.976;11.858;2022-08-16T08:48:53;22.60;99.90
16823;DHT22;8528;49.976;11.858;2022-08-16T08:51:28;22.80;99.90
16823;DHT22;8528;49.976;11.858;2022-08-16T08:54:04;23.00;99.90
16823;DHT22;8528;49.976;11.858;2022-08-16T08:56:36;22.90;99.90
16823;DHT22;8528;49.976;11.858;2022-08-16T08:59:12;22.50;99.90
16823;DHT22;8528;49.976;11.858;2022-08-16T09:01:52;22.30;99.90
16823;DHT22;8528;49.976;11.858;2022-08-16T09:04:26;22.30;99.90
16823;DHT22;8528;49.976;11.858;2022-08-16T09:06:55;22.30;99.90
16823;DHT22;8528;49.976;11.858;2022-08-16T09:09:24;22.30;99.90
16823;DHT22;8528;49.976;11.858;2022-08-16T09:11:59;22.40;99.90
16823;DHT22;8528;49.976;11.858;2022-08-16T09:14:34;22.20;99.90
16823;DHT22;8528;49.976;11.858;2022-08-16T09:17:05;22.00;99.90
16823;DHT22;8528;49.976;11.858;2022-08-16T09:19:52;22.10;99.90
16823;DHT22;8528;49.976;11.858;2022-08-16T09:22:25;22.20;99.90
16823;DHT22;8528;49.976;11.858;2022-08-16T09:24:54;22.40;99.90
16823;DHT22;8528;49.976;11.858;2022-08-16T09:27:35;22.50;99.90
16823;DHT22;8528;49.976;11.858;2022-08-16T09:30:26;22.90;99.90
16823;DHT22;8528;49.976;11.858;2022-08-16T09:33:01;23.20;99.90
16823;DHT22;8528;49.976;11.858;2022-08-16T09:35:32;23.30;99.90
16823;DHT22;8528;49.976;11.858;2022-08-16T09:38:03;23.40;99.90
16823;DHT22;8528;49.976;11.858;2022-08-16T09:40:35;23.40;99.90
16823;DHT22;8528;49.976;11.858;2022-08-16T09:43:14;23.60;99.90
16823;DHT22;8528;49.976;11.858;2022-08-16T09:46:03;24.00;99.20
16823;DHT22;8528;49.976;11.858;2022-08-16T09:48:53;24.40;97.80
16823;DHT22;8528;49.976;11.858;2022-08-16T09:51:22;24.90;96.80
16823;DHT22;8528;49.976;11.858;2022-08-16T09:54:06;25.20;96.70
16823;DHT22;8528;49.976;11.858;2022-08-16T09:56:37;25.80;95.20
16823;DHT22;8528;49.976;11.858;2022-08-16T09:59:24;26.10;93.60
16823;DHT22;8528;49.976;11.858;2022-08-16T10:02:05;26.10;92.80
16823;DHT22;8528;49.976;11.858;2022-08-16T10:04:53;26.20;92.50
16823;DHT22;8528;49.976;11.858;2022-08-16T10:07:29;26.20;91.20
16823;DHT22;8528;49.976;11.858;2022-08-16T10:10:14;26.00;91.50
16823;DHT22;8528;49.976;11.858;2022-08-16T10:12:47;25.80;91.60
16823;DHT22;8528;49.976;11.858;2022-08-16T10:15:34;25.30;92.10
16823;DHT22;8528;49.976;11.858;2022-08-16T10:18:05;25.00;92.80
16823;DHT22;8528;49.976;11.858;2022-08-16T10:20:53;24.90;93.00
16823;DHT22;8528;49.976;11.858;2022-08-16T10:23:23;25.40;92.50
16823;DHT22;8528;49.976;11.858;2022-08-16T10:25:54;25.50;92.10
16823;DHT22;8528;49.976;11.858;2022-08-16T10:28:41;25.80;92.20
16823;DHT22;8528;49.976;11.858;2022-08-16T10:31:09;25.50;92.40
16823;DHT22;8528;49.976;11.858;2022-08-16T10:33:43;25.30;92.50
16823;DHT22;8528;49.976;11.858;2022-08-16T10:36:11;25.40;92.00
16823;DHT22;8528;49.976;11.858;2022-08-16T10:38:59;25.20;92.50
16823;DHT22;8528;49.976;11.858;2022-08-16T10:41:30;25.20;92.70
16823;DHT22;8528;49.976;11.858;2022-08-16T10:44:01;25.10;92.70
16823;DHT22;8528;49.976;11.858;2022-08-16T10:46:28;25.00;92.80
16823;DHT22;8528;49.976;11.858;2022-08-16T10:49:06;25.10;92.80
16823;DHT22;8528;49.976;11.858;2022-08-16T10:51:36;24.80;92.60
16823;DHT22;8528;49.976;11.858;2022-08-16T10:54:19;24.50;93.30
16823;DHT22;8528;49.976;11.858;2022-08-16T10:57:00;24.50;93.70
16823;DHT22;8528;49.976;11.858;2022-08-16T10:59:31;24.90;93.00
16823;DHT22;8528;49.976;11.858;2022-08-16T11:02:16;25.20;92.10
16823;DHT22;8528;49.976;11.858;2022-08-16T11:05:13;25.00;91.20
16823;DHT22;8528;49.976;11.858;2022-08-16T11:07:48;24.90;91.30
16823;DHT22;8528;49.976;11.858;2022-08-16T11:10:29;24.90;91.50
16823;DHT22;8528;49.976;11.858;2022-08-16T11:13:22;25.00;91.40
16823;DHT22;8528;49.976;11.858;2022-08-16T11:16:32;25.10;91.00
16823;DHT22;8528;49.976;11.858;2022-08-16T11:19:19;25.20;90.50
16823;DHT22;8528;49.976;11.858;2022-08-16T11:21:48;25.20;89.80
16823;DHT22;8528;49.976;11.858;2022-08-16T11:24:42;25.00;89.10
16823;DHT22;8528;49.976;11.858;2022-08-16T11:27:17;24.90;90.50
16823;DHT22;8528;49.976;11.858;2022-08-16T11:29:53;25.10;89.10
16823;DHT22;8528;49.976;11.858;2022-08-16T11:32:26;25.20;88.40
16823;DHT22;8528;49.976;11.858;2022-08-16T11:35:01;25.00;88.90
16823;DHT22;8528;49.976;11.858;2022-08-16T11:37:46;24.80;88.50
16823;DHT22;8528;49.976;11.858;2022-08-16T11:40:45;24.90;89.50
16823;DHT22;8528;49.976;11.858;2022-08-16T11:43:21;24.80;89.70
16823;DHT22;8528;49.976;11.858;2022-08-16T11:45:52;24.90;88.20
16823;DHT22;8528;49.976;11.858;2022-08-16T11:48:24;24.70;88.80
16823;DHT22;8528;49.976;11.858;2022-08-16T11:50:52;24.70;88.80
16823;DHT22;8528;49.976;11.858;2022-08-16T11:53:19;24.50;89.10
16823;DHT22;8528;49.976;11.858;2022-08-16T11:55:48;24.50;89.90
16823;DHT22;8528;49.976;11.858;2022-08-16T11:58:24;24.80;88.00
16823;DHT22;8528;49.976;11.858;2022-08-16T12:00:57;25.00;88.80
16823;DHT22;8528;49.976;11.858;2022-08-16T12:03:29;25.10;87.80
16823;DHT22;8528;49.976;11.858;2022-08-16T12:06:06;25.10;88.70
16823;DHT22;8528;49.976;11.858;2022-08-16T12:08:42;25.60;85.30
16823;DHT22;8528;49.976;11.858;2022-08-16T12:11:15;26.20;84.30
16823;DHT22;8528;49.976;11.858;2022-08-16T12:13:42;26.70;83.20
16823;DHT22;8528;49.976;11.858;2022-08-16T12:16:11;26.30;82.20
16823;DHT22;8528;49.976;11.858;2022-08-16T12:18:43;25.80;82.00
16823;DHT22;8528;49.976;11.858;2022-08-16T12:21:17;25.80;83.30
16823;DHT22;8528;49.976;11.858;2022-08-16T12:23:45;26.20;82.20
16823;DHT22;8528;49.976;11.858;2022-08-16T12:26:12;26.50;81.70
16823;DHT22;8528;49.976;11.858;2022-08-16T12:28:39;26.60;79.90
16823;DHT22;8528;49.976;11.858;2022-08-16T12:31:23;26.70;80.30
16823;DHT22;8528;49.976;11.858;2022-08-16T12:33:54;26.90;77.70
16823;DHT22;8528;49.976;11.858;2022-08-16T12:36:26;27.10;77.60
16823;DHT22;8528;49.976;11.858;2022-08-16T12:38:57;27.20;76.30
16823;DHT22;8528;49.976;11.858;2022-08-16T12:41:24;27.10;75.20
16823;DHT22;8528;49.976;11.858;2022-08-16T12:43:55;26.70;75.50
16823;DHT22;8528;49.976;11.858;2022-08-16T12:46:27;26.30;75.70
16823;DHT22;8528;49.976;11.858;2022-08-16T12:48:59;26.20;76.40
16823;DHT22;8528;49.976;11.858;2022-08-16T12:51:39;26.70;76.20
16823;DHT22;8528;49.976;11.858;2022-08-16T12:54:28;27.10;74.10
16823;DHT22;8528;49.976;11.858;2022-08-16T12:56:55;27.20;73.10
16823;DHT22;8528;49.976;11.858;2022-08-16T12:59:22;27.10;73.70
16823;DHT22;8528;49.976;11.858;2022-08-16T13:01:50;26.90;74.70
16823;DHT22;8528;49.976;11.858;2022-08-16T13:04:24;26.60;76.50
16823;DHT22;8528;49.976;11.858;2022-08-16T13:06:52;26.40;76.20
16823;DHT22;8528;49.976;11.858;2022-08-16T13:09:20;26.10;75.30
16823;DHT22;8528;49.976;11.858;2022-08-16T13:12:04;26.00;75.90
16823;DHT22;8528;49.976;11.858;2022-08-16T13:14:42;26.00;75.70
16823;DHT22;8528;49.976;11.858;2022-08-16T13:17:15;25.90;76.90
16823;DHT22;8528;49.976;11.858;2022-08-16T13:19:46;25.80;76.50
16823;DHT22;8528;49.976;11.858;2022-08-16T13:22:34;25.40;77.50
16823;DHT22;8528;49.976;11.858;2022-08-16T13:25:03;25.30;79.60
16823;DHT22;8528;49.976;11.858;2022-08-16T13:27:38;25.40;78.50
16823;DHT22;8528;49.976;11.858;2022-08-16T13:33:16;25.50;77.20
16823;DHT22;8528;49.976;11.858;2022-08-16T13:35:53;25.40;77.80
16823;DHT22;8528;49.976;11.858;2022-08-16T13:38:27;25.60;77.80
16823;DHT22;8528;49.976;11.858;2022-08-16T13:41:02;25.70;77.70
16823;DHT22;8528;49.976;11.858;2022-08-16T13:43:34;25.80;76.70
16823;DHT22;8528;49.976;11.858;2022-08-16T13:46:05;26.10;75.40
16823;DHT22;8528;49.976;11.858;2022-08-16T13:48:33;26.40;74.50
16823;DHT22;8528;49.976;11.858;2022-08-16T13:51:14;26.60;73.40
16823;DHT22;8528;49.976;11.858;2022-08-16T13:53:45;26.60;72.90
16823;DHT22;8528;49.976;11.858;2022-08-16T13:56:21;26.50;73.20
16823;DHT22;8528;49.976;11.858;2022-08-16T13:59:08;26.40;72.10
16823;DHT22;8528;49.976;11.858;2022-08-16T14:01:51;26.40;72.10
16823;DHT22;8528;49.976;11.858;2022-08-16T14:04:37;26.10;73.10
16823;DHT22;8528;49.976;11.858;2022-08-16T14:07:08;25.80;72.70
16823;DHT22;8528;49.976;11.858;2022-08-16T14:09:38;25.40;72.70
16823;DHT22;8528;49.976;11.858;2022-08-16T14:12:19;25.30;73.00
16823;DHT22;8528;49.976;11.858;2022-08-16T14:14:47;25.10;73.80
16823;DHT22;8528;49.976;11.858;2022-08-16T14:17:22;24.70;74.90
16823;DHT22;8528;49.976;11.858;2022-08-16T14:19:50;24.70;75.50
16823;DHT22;8528;49.976;11.858;2022-08-16T14:22:21;24.70;75.90
16823;DHT22;8528;49.976;11.858;2022-08-16T14:25:01;24.70;76.10
16823;DHT22;8528;49.976;11.858;2022-08-16T14:27:36;24.70;76.90
16823;DHT22;8528;49.976;11.858;2022-08-16T14:30:17;24.60;77.00
16823;DHT22;8528;49.976;11.858;2022-08-16T14:32:45;24.60;77.70
16823;DHT22;8528;49.976;11.858;2022-08-16T14:35:25;24.80;77.20
16823;DHT22;8528;49.976;11.858;2022-08-16T14:38:03;25.10;76.50
16823;DHT22;8528;49.976;11.858;2022-08-16T14:40:30;25.40;74.00
16823;DHT22;8528;49.976;11.858;2022-08-16T14:43:01;25.90;74.90
16823;DHT22;8528;49.976;11.858;2022-08-16T14:45:33;26.30;72.50
16823;DHT22;8528;49.976;11.858;2022-08-16T14:48:00;26.50;70.40
16823;DHT22;8528;49.976;11.858;2022-08-16T14:50:29;26.20;70.10
16823;DHT22;8528;49.976;11.858;2022-08-16T14:53:04;26.30;71.40
16823;DHT22;8528;49.976;11.858;2022-08-16T14:55:34;26.30;71.10
16823;DHT22;8528;49.976;11.858;2022-08-16T14:58:06;26.40;68.30
16823;DHT22;8528;49.976;11.858;2022-08-16T15:00:47;26.40;68.40
16823;DHT22;8528;49.976;11.858;2022-08-16T15:03:18;26.60;67.20
16823;DHT22;8528;49.976;11.858;2022-08-16T15:05:46;26.60;66.60
16823;DHT22;8528;49.976;11.858;2022-08-16T15:08:14;26.50;65.80
16823;DHT22;8528;49.976;11.858;2022-08-16T15:10:46;26.30;65.60
16823;DHT22;8528;49.976;11.858;2022-08-16T15:13:19;26.10;65.70
16823;DHT22;8528;49.976;11.858;2022-08-16T15:15:47;26.10;65.00
16823;DHT22;8528;49.976;11.858;2022-08-16T15:18:25;26.30;65.10
16823;DHT22;8528;49.976;11.858;2022-08-16T15:21:02;26.60;63.20
16823;DHT22;8528;49.976;11.858;2022-08-16T15:23:31;27.20;63.50
16823;DHT22;8528;49.976;11.858;2022-08-16T15:26:05;27.90;62.10
16823;DHT22;8528;49.976;11.858;2022-08-16T15:28:34;28.60;59.80
16823;DHT22;8528;49.976;11.858;2022-08-16T15:31:06;28.90;58.30
16823;DHT22;8528;49.976;11.858;2022-08-16T15:33:48;29.70;57.90
16823;DHT22;8528;49.976;11.858;2022-08-16T15:36:26;30.00;57.80
16823;DHT22;8528;49.976;11.858;2022-08-16T15:38:55;30.20;57.60
16823;DHT22;8528;49.976;11.858;2022-08-16T15:44:18;30.20;56.20
16823;DHT22;8528;49.976;11.858;2022-08-16T15:46:48;30.20;55.80
16823;DHT22;8528;49.976;11.858;2022-08-16T15:49:23;29.40;56.70
16823;DHT22;8528;49.976;11.858;2022-08-16T15:52:10;29.30;56.90
16823;DHT22;8528;49.976;11.858;2022-08-16T15:54:41;29.30;56.70
16823;DHT22;8528;49.976;11.858;2022-08-16T15:57:21;28.90;57.90
16823;DHT22;8528;49.976;11.858;2022-08-16T16:00:07;29.30;57.60
16823;DHT22;8528;49.976;11.858;2022-08-16T16:02:41;28.80;56.80
16823;DHT22;8528;49.976;11.858;2022-08-16T16:05:11;28.20;57.80
16823;DHT22;8528;49.976;11.858;2022-08-16T16:07:40;27.90;58.10
16823;DHT22;8528;49.976;11.858;2022-08-16T16:10:23;27.50;58.70
16823;DHT22;8528;49.976;11.858;2022-08-16T16:13:05;27.80;58.80
16823;DHT22;8528;49.976;11.858;2022-08-16T16:15:41;28.20;57.90
16823;DHT22;8528;49.976;11.858;2022-08-16T16:18:09;28.20;58.00
16823;DHT22;8528;49.976;11.858;2022-08-16T16:21:00;28.00;58.80
16823;DHT22;8528;49.976;11.858;2022-08-16T16:23:38;28.90;57.50
16823;DHT22;8528;49.976;11.858;2022-08-16T16:26:23;30.00;55.60
16823;DHT22;8528;49.976;11.858;2022-08-16T16:28:52;30.00;55.00
16823;DHT22;8528;49.976;11.858;2022-08-16T16:31:35;30.10;55.60